Time;durP1;ratioP1;P1;durP2;ratioP2;P2;SDS_P1;SDS_P2;PMS_P1;PMS_P2;Temp;Humidity;BMP_temperature;BMP_pressure;BME280_temperature;BME280_humidity;BME280_pressure;Samples;Min_cycle;Max_cycle;Signal;HPM_P1;HPM_P2
2023/03/21 00:01:07;;;;;;;9.50;5.00;;;9.40;99.90;;;;;;4995592;28;20471;-89
2023/03/21 00:03:55;;;;;;;7.20;4.67;;;9.30;99.90;;;;;;4992145;28;20448;-88
2023/03/21 00:06:40;;;;;;;9.50;5.47;;;9.30;99.90;;;;;;5001044;28;20518;-88
2023/03/21 00:09:26;;;;;;;8.67;5.37;;;9.30;99.90;;;;;;4996856;28;20491;-89
2023/03/21 00:12:13;;;;;;;7.90;5.50;;;9.30;99.90;;;;;;4998398;28;20444;-88
2023/03/21 00:15:04;;;;;;;6.77;4.60;;;9.20;99.90;;;;;;4996645;28;20933;-88
2023/03/21 00:17:50;;;;;;;9.83;5.70;;;9.10;99.90;;;;;;4996366;28;20455;-88
2023/03/21 00:20:37;;;;;;;12.13;5.30;;;9.20;99.90;;;;;;4997838;28;20471;-89
2023/03/21 00:23:24;;;;;;;15.17;5.67;;;9.20;99.90;;;;;;4989713;28;20453;-88
2023/03/21 00:26:10;;;;;;;6.20;4.10;;;9.20;99.90;;;;;;4996307;28;20438;-88
2023/03/21 00:28:56;;;;;;;8.27;4.77;;;9.20;99.90;;;;;;4996458;28;20548;-88
2023/03/21 00:31:42;;;;;;;6.97;4.20;;;9.20;99.90;;;;;;4999189;28;20799;-88
2023/03/21 00:34:27;;;;;;;8.17;4.50;;;9.20;99.90;;;;;;4997057;28;20444;-89
2023/03/21 00:37:16;;;;;;;6.77;4.60;;;9.20;99.90;;;;;;4999821;28;20449;-89
2023/03/21 00:40:01;;;;;;;6.57;4.33;;;9.20;99.90;;;;;;5013291;22;20491;-72
2023/03/21 00:42:47;;;;;;;7.73;4.30;;;9.20;99.90;;;;;;5008854;28;20450;-71
2023/03/21 00:45:33;;;;;;;9.73;4.53;;;9.20;99.90;;;;;;5009180;28;20480;-69
2023/03/21 00:48:18;;;;;;;10.53;5.27;;;9.20;99.90;;;;;;5009309;28;20459;-73
2023/03/21 00:51:14;;;;;;;6.10;4.07;;;9.20;99.90;;;;;;5010358;28;20469;-72
2023/03/21 00:54:01;;;;;;;11.47;4.70;;;9.20;99.90;;;;;;5009609;28;20471;-72
2023/03/21 00:56:46;;;;;;;13.07;4.90;;;9.10;99.90;;;;;;5010940;28;20491;-73
2023/03/21 00:59:32;;;;;;;8.70;4.87;;;9.20;99.90;;;;;;5004855;28;20554;-73
2023/03/21 01:02:21;;;;;;;8.47;4.30;;;9.20;99.90;;;;;;4997857;28;20551;-73
2023/03/21 01:05:09;;;;;;;9.03;5.00;;;9.20;99.90;;;;;;5010762;28;20559;-72
2023/03/21 01:07:54;;;;;;;6.40;4.63;;;9.20;99.90;;;;;;5010185;28;20458;-73
2023/03/21 01:10:43;;;;;;;7.50;4.23;;;9.30;99.90;;;;;;5007666;28;20476;-72
2023/03/21 01:13:29;;;;;;;7.47;5.13;;;9.30;99.90;;;;;;5010560;28;20441;-70
2023/03/21 01:16:14;;;;;;;8.70;4.20;;;9.30;99.90;;;;;;5005147;28;20453;-73
2023/03/21 01:19:00;;;;;;;9.40;4.30;;;9.30;99.90;;;;;;5009812;28;20595;-73
2023/03/21 01:21:46;;;;;;;10.70;4.37;;;9.30;99.90;;;;;;5005021;28;20483;-72
2023/03/21 01:24:31;;;;;;;6.50;3.90;;;9.30;99.90;;;;;;5007198;28;20473;-73
2023/03/21 01:27:18;;;;;;;5.93;3.40;;;9.20;99.90;;;;;;5009209;28;20452;-73
2023/03/21 01:30:05;;;;;;;5.47;3.70;;;9.10;99.90;;;;;;5007241;28;21454;-72
2023/03/21 01:32:50;;;;;;;4.90;3.80;;;9.10;99.90;;;;;;4999566;28;20468;-69
2023/03/21 01:35:37;;;;;;;5.50;3.27;;;9.00;99.90;;;;;;5007299;28;20474;-69
2023/03/21 01:38:22;;;;;;;6.50;3.90;;;8.90;99.90;;;;;;5008419;28;20444;-71
2023/03/21 01:41:10;;;;;;;6.17;4.10;;;8.90;99.90;;;;;;5006730;28;20470;-68
2023/03/21 01:43:58;;;;;;;9.23;3.97;;;8.80;99.90;;;;;;5010051;28;20443;-73
2023/03/21 01:46:48;;;;;;;6.37;3.53;;;8.60;99.90;;;;;;5010829;28;20503;-73
2023/03/21 01:49:37;;;;;;;5.60;3.60;;;8.60;99.90;;;;;;5006413;28;20586;-72
2023/03/21 01:52:27;;;;;;;7.40;3.50;;;8.50;99.90;;;;;;5003548;28;20451;-71
2023/03/21 01:55:15;;;;;;;4.53;3.37;;;8.50;99.90;;;;;;5010233;28;20843;-73
2023/03/21 01:58:03;;;;;;;8.93;4.50;;;8.40;99.90;;;;;;5009157;28;21189;-73
2023/03/21 02:00:52;;;;;;;7.37;4.20;;;8.30;99.90;;;;;;5002996;28;20522;-73
2023/03/21 02:03:48;;;;;;;6.73;3.33;;;8.30;99.90;;;;;;5006699;28;20447;-73
2023/03/21 02:06:40;;;;;;;6.33;4.30;;;8.30;99.90;;;;;;5009335;28;20556;-72
2023/03/21 02:09:30;;;;;;;6.30;4.27;;;8.10;99.90;;;;;;5008422;28;20445;-72
2023/03/21 02:12:17;;;;;;;6.17;3.70;;;8.10;99.90;;;;;;5004420;28;20441;-73
2023/03/21 02:15:03;;;;;;;5.53;3.47;;;8.20;99.90;;;;;;5006836;28;20475;-72
2023/03/21 02:17:58;;;;;;;7.60;4.10;;;8.30;99.90;;;;;;5006757;28;20452;-73
2023/03/21 02:21:09;;;;;;;6.93;3.70;;;8.30;99.90;;;;;;5006561;28;21035;-72
2023/03/21 02:24:29;;;;;;;6.80;3.70;;;8.30;99.90;;;;;;5008859;28;20443;-73
2023/03/21 02:27:17;;;;;;;10.23;3.40;;;8.30;99.90;;;;;;5009482;28;20447;-72
2023/03/21 02:30:44;;;;;;;6.30;4.10;;;8.40;99.90;;;;;;5007931;28;20523;-71
2023/03/21 02:34:06;;;;;;;7.73;3.97;;;8.30;99.90;;;;;;5009573;28;20448;-73
2023/03/21 02:37:03;;;;;;;8.97;4.00;;;8.20;99.90;;;;;;5009262;28;20599;-73
2023/03/21 02:39:59;;;;;;;6.83;3.40;;;8.10;99.90;;;;;;5006995;28;20463;-72
2023/03/21 02:42:55;;;;;;;8.20;3.37;;;8.10;99.90;;;;;;5009726;28;20550;-72
2023/03/21 02:45:46;;;;;;;5.53;4.00;;;8.10;99.90;;;;;;5005491;28;21079;-71
2023/03/21 02:48:38;;;;;;;8.00;3.37;;;8.20;99.90;;;;;;5002508;28;20975;-73
2023/03/21 02:51:25;;;;;;;7.17;3.90;;;8.30;99.90;;;;;;5001837;28;20447;-73
2023/03/21 02:54:15;;;;;;;10.07;3.23;;;8.20;99.90;;;;;;5006034;28;20550;-73
2023/03/21 02:57:03;;;;;;;8.90;3.43;;;8.20;99.90;;;;;;5008895;28;20531;-73
2023/03/21 02:59:50;;;;;;;6.47;3.90;;;8.30;99.90;;;;;;5003331;28;20444;-71
2023/03/21 03:02:37;;;;;;;6.23;3.30;;;8.30;99.90;;;;;;5003601;28;20958;-72
2023/03/21 03:05:25;;;;;;;7.40;3.60;;;8.40;99.90;;;;;;5006738;28;21003;-71
2023/03/21 03:08:32;;;;;;;5.23;3.23;;;8.40;99.90;;;;;;5007955;28;21003;-71
2023/03/21 03:11:27;;;;;;;4.43;2.57;;;8.40;99.90;;;;;;5002519;28;20599;-72
2023/03/21 03:14:42;;;;;;;6.97;3.40;;;8.40;99.90;;;;;;5006688;28;20475;-73
2023/03/21 03:17:40;;;;;;;6.30;4.30;;;8.30;99.90;;;;;;5007855;28;20449;-73
2023/03/21 03:20:37;;;;;;;14.00;3.60;;;8.30;99.90;;;;;;5005755;28;20447;-73
2023/03/21 03:23:29;;;;;;;6.60;3.97;;;8.30;99.90;;;;;;5009001;28;20923;-73
2023/03/21 03:26:19;;;;;;;6.30;3.40;;;8.20;99.90;;;;;;5005865;28;20814;-72
2023/03/21 03:29:08;;;;;;;6.97;4.23;;;8.10;99.90;;;;;;5008821;28;20483;-72
2023/03/21 03:31:58;;;;;;;5.23;3.30;;;8.10;99.90;;;;;;5005821;28;20444;-72
2023/03/21 03:34:48;;;;;;;7.73;4.20;;;8.10;99.90;;;;;;5006946;28;20460;-73
2023/03/21 03:37:36;;;;;;;5.30;3.70;;;8.00;99.90;;;;;;5008967;28;20530;-72
2023/03/21 03:40:27;;;;;;;9.80;4.60;;;7.90;99.90;;;;;;5004019;28;20515;-71
2023/03/21 03:43:18;;;;;;;7.33;4.87;;;7.90;99.90;;;;;;5005539;28;21039;-73
2023/03/21 03:46:12;;;;;;;8.03;3.60;;;7.80;99.90;;;;;;5002278;28;20448;-73
2023/03/21 03:49:01;;;;;;;9.70;4.80;;;7.70;99.90;;;;;;5007370;28;20447;-73
2023/03/21 03:51:52;;;;;;;7.40;3.97;;;7.60;99.90;;;;;;5005253;28;20823;-73
2023/03/21 03:54:41;;;;;;;10.30;4.00;;;7.50;99.90;;;;;;5007554;28;20475;-72
2023/03/21 03:57:29;;;;;;;12.20;3.70;;;7.50;99.90;;;;;;5004631;28;20443;-72
2023/03/21 04:00:16;;;;;;;8.10;4.30;;;7.40;99.90;;;;;;5005401;28;20475;-70
2023/03/21 04:03:05;;;;;;;10.93;5.03;;;7.50;99.90;;;;;;5008804;28;20475;-72
2023/03/21 04:05:52;;;;;;;8.50;4.93;;;7.50;99.90;;;;;;5007413;28;20471;-72
2023/03/21 04:08:38;;;;;;;9.37;4.63;;;7.60;99.90;;;;;;5008160;28;20546;-70
2023/03/21 04:11:24;;;;;;;6.83;3.93;;;7.60;99.90;;;;;;5004467;28;20515;-73
2023/03/21 04:14:09;;;;;;;8.30;4.70;;;7.50;99.90;;;;;;5005514;28;20475;-71
2023/03/21 04:16:54;;;;;;;5.73;4.50;;;7.50;99.90;;;;;;5009370;28;20447;-73
2023/03/21 04:19:41;;;;;;;6.97;5.07;;;7.50;99.90;;;;;;5006036;28;20475;-73
2023/03/21 04:22:27;;;;;;;10.10;5.03;;;7.60;99.90;;;;;;5007500;28;20484;-73
2023/03/21 04:25:13;;;;;;;8.33;4.63;;;7.70;99.90;;;;;;5004312;28;20467;-72
2023/03/21 04:27:58;;;;;;;5.93;4.30;;;7.70;99.90;;;;;;5009353;28;20457;-72
2023/03/21 04:30:45;;;;;;;7.90;4.87;;;7.80;99.90;;;;;;5007375;28;20811;-72
2023/03/21 04:33:31;;;;;;;8.00;5.20;;;7.90;99.90;;;;;;5010384;28;20444;-72
2023/03/21 04:36:26;;;;;;;11.30;4.93;;;7.90;99.90;;;;;;5012117;28;20527;-73
2023/03/21 04:39:12;;;;;;;7.40;4.43;;;7.90;99.90;;;;;;5002403;28;21088;-73
2023/03/21 04:41:57;;;;;;;10.20;5.03;;;7.90;99.90;;;;;;5010938;28;20460;-71
2023/03/21 04:44:43;;;;;;;9.90;4.70;;;8.00;99.90;;;;;;5009636;28;20474;-73
2023/03/21 04:47:29;;;;;;;8.37;4.50;;;8.00;99.90;;;;;;5011287;28;20515;-73
2023/03/21 04:50:14;;;;;;;7.67;4.80;;;8.00;99.90;;;;;;5007235;28;21511;-71
2023/03/21 04:53:01;;;;;;;8.63;5.00;;;7.90;99.90;;;;;;5011290;28;20439;-73
2023/03/21 04:55:46;;;;;;;8.07;5.20;;;7.90;99.90;;;;;;5011190;28;21112;-71
2023/03/21 04:58:32;;;;;;;7.40;4.63;;;7.90;99.90;;;;;;5003618;28;20910;-67
2023/03/21 05:01:19;;;;;;;7.40;4.17;;;7.90;99.90;;;;;;5009782;28;20954;-73
2023/03/21 05:04:05;;;;;;;6.67;4.53;;;8.00;99.90;;;;;;5010542;28;20464;-71
2023/03/21 05:06:51;;;;;;;12.03;4.80;;;8.00;99.90;;;;;;5010023;28;20495;-73
2023/03/21 05:09:38;;;;;;;11.10;5.47;;;8.00;99.90;;;;;;5007539;28;20443;-71
2023/03/21 05:12:23;;;;;;;7.40;5.20;;;7.90;99.90;;;;;;5011393;28;20516;-72
2023/03/21 05:15:09;;;;;;;6.57;4.67;;;7.90;99.90;;;;;;5012589;28;20472;-68
2023/03/21 05:17:57;;;;;;;8.47;5.40;;;7.80;99.90;;;;;;5009585;28;20884;-73
2023/03/21 05:20:43;;;;;;;6.93;4.07;;;7.60;99.90;;;;;;5011741;28;20442;-73
2023/03/21 05:23:30;;;;;;;11.03;4.87;;;7.60;99.90;;;;;;5008234;28;20958;-73
2023/03/21 05:26:17;;;;;;;8.13;5.80;;;7.60;99.90;;;;;;5010623;28;20891;-71
2023/03/21 05:29:02;;;;;;;5.43;4.13;;;7.60;99.90;;;;;;5006929;28;20818;-73
2023/03/21 05:31:48;;;;;;;6.53;4.47;;;7.60;99.90;;;;;;5010304;28;20822;-73
2023/03/21 05:34:33;;;;;;;7.20;4.80;;;7.50;99.90;;;;;;5009981;28;20466;-73
2023/03/21 05:37:19;;;;;;;6.27;4.30;;;7.40;99.90;;;;;;5009312;28;20443;-74
2023/03/21 05:40:06;;;;;;;7.20;4.60;;;7.40;99.90;;;;;;5009113;28;20559;-70
2023/03/21 05:42:53;;;;;;;7.13;5.20;;;7.30;99.90;;;;;;5007779;28;20578;-71
2023/03/21 05:45:39;;;;;;;7.67;5.90;;;7.30;99.90;;;;;;5008702;28;20837;-74
2023/03/21 05:48:24;;;;;;;15.50;6.10;;;7.20;99.90;;;;;;5005636;28;20450;-74
2023/03/21 05:51:10;;;;;;;10.97;5.30;;;7.30;99.90;;;;;;5009751;28;20587;-72
2023/03/21 05:53:56;;;;;;;6.17;4.97;;;7.20;99.90;;;;;;5010557;28;20503;-73
2023/03/21 05:56:41;;;;;;;6.67;5.23;;;7.20;99.90;;;;;;5007096;28;20455;-73
2023/03/21 05:59:28;;;;;;;8.67;5.27;;;7.20;99.90;;;;;;5005695;28;20579;-73
2023/03/21 06:02:14;;;;;;;7.67;4.77;;;7.40;99.90;;;;;;5008012;28;20826;-69
2023/03/21 06:05:00;;;;;;;9.73;4.80;;;7.40;99.90;;;;;;5008228;28;20467;-74
2023/03/21 06:07:45;;;;;;;8.27;4.80;;;7.40;99.90;;;;;;5007742;28;20457;-71
2023/03/21 06:10:31;;;;;;;9.20;5.60;;;7.50;99.90;;;;;;5008776;28;20542;-71
2023/03/21 06:13:17;;;;;;;6.53;5.13;;;7.40;99.90;;;;;;5010063;28;20491;-71
2023/03/21 06:16:05;;;;;;;8.17;5.63;;;7.40;99.90;;;;;;5003916;28;21471;-71
2023/03/21 06:18:51;;;;;;;10.50;5.53;;;7.50;99.90;;;;;;5005117;28;20446;-71
2023/03/21 06:21:37;;;;;;;7.10;5.10;;;7.60;99.90;;;;;;5008434;28;20494;-71
2023/03/21 06:24:22;;;;;;;7.17;5.27;;;7.60;99.90;;;;;;5008346;28;20563;-71
2023/03/21 06:27:08;;;;;;;10.60;5.87;;;7.70;99.90;;;;;;5004017;28;20463;-71
2023/03/21 06:29:53;;;;;;;7.33;5.20;;;7.80;99.90;;;;;;5008835;28;20513;-71
2023/03/21 06:32:40;;;;;;;10.80;5.27;;;7.90;99.90;;;;;;5008024;28;20545;-71
2023/03/21 06:35:26;;;;;;;7.50;5.37;;;8.00;99.90;;;;;;5008128;28;20630;-72
2023/03/21 06:38:11;;;;;;;7.40;5.03;;;8.00;99.90;;;;;;5004016;28;20530;-71
2023/03/21 06:40:57;;;;;;;9.27;5.33;;;8.10;99.90;;;;;;5006692;28;20462;-71
2023/03/21 06:43:43;;;;;;;8.40;5.23;;;8.00;99.90;;;;;;5000547;28;20628;-71
2023/03/21 06:46:29;;;;;;;7.20;5.10;;;8.10;99.90;;;;;;5007074;28;20583;-71
2023/03/21 06:49:15;;;;;;;14.07;6.07;;;8.30;99.90;;;;;;5003817;28;20519;-71
2023/03/21 06:52:01;;;;;;;7.43;5.20;;;8.30;99.90;;;;;;5008694;28;20458;-71
2023/03/21 06:54:47;;;;;;;11.57;5.70;;;8.50;99.90;;;;;;5007938;28;20945;-71
2023/03/21 06:57:33;;;;;;;7.90;5.47;;;8.50;99.90;;;;;;5006718;28;20571;-71
2023/03/21 07:00:20;;;;;;;7.43;5.33;;;8.70;99.90;;;;;;5007929;28;20460;-71
2023/03/21 07:03:05;;;;;;;7.33;4.40;;;8.90;99.90;;;;;;5009273;28;20959;-71
2023/03/21 07:05:52;;;;;;;10.87;5.53;;;9.10;99.90;;;;;;5006355;28;20463;-71
2023/03/21 07:08:39;;;;;;;11.10;5.80;;;9.20;99.90;;;;;;5007497;28;20491;-71
2023/03/21 07:11:25;;;;;;;7.33;5.63;;;9.30;99.90;;;;;;5002911;28;20452;-71
2023/03/21 07:14:11;;;;;;;11.33;5.63;;;9.50;99.90;;;;;;5006754;28;21036;-71
2023/03/21 07:16:56;;;;;;;10.00;5.20;;;9.60;99.90;;;;;;5004101;28;20447;-71
2023/03/21 07:19:42;;;;;;;11.53;5.70;;;9.60;99.90;;;;;;5007705;28;20452;-71
2023/03/21 07:22:29;;;;;;;10.87;5.40;;;9.70;99.90;;;;;;5008034;28;20493;-71
2023/03/21 07:25:16;;;;;;;9.27;5.10;;;9.70;99.90;;;;;;5007878;28;20496;-71
2023/03/21 07:28:01;;;;;;;7.13;4.33;;;9.90;99.90;;;;;;5005129;28;20472;-71
2023/03/21 07:30:53;;;;;;;7.30;4.57;;;10.00;99.90;;;;;;5007527;28;20595;-72
2023/03/21 07:33:39;;;;;;;8.00;5.23;;;10.10;99.90;;;;;;5007342;28;20449;-71
2023/03/21 07:36:25;;;;;;;9.57;4.93;;;10.20;99.90;;;;;;5004623;28;20459;-71
2023/03/21 07:39:12;;;;;;;11.73;4.80;;;10.30;99.90;;;;;;5011528;28;21096;-71
2023/03/21 07:41:58;;;;;;;7.60;5.00;;;10.40;99.90;;;;;;5008732;28;20478;-71
2023/03/21 07:44:43;;;;;;;10.23;4.70;;;10.50;99.90;;;;;;5005860;28;20472;-71
2023/03/21 07:47:29;;;;;;;8.53;4.07;;;10.60;99.90;;;;;;5004204;28;20519;-71
2023/03/21 07:50:15;;;;;;;5.43;4.10;;;10.80;99.90;;;;;;5004043;28;20460;-71
2023/03/21 07:53:01;;;;;;;9.37;4.57;;;10.90;99.90;;;;;;5008099;28;20454;-71
2023/03/21 07:55:51;;;;;;;8.60;5.77;;;11.00;99.90;;;;;;5005744;28;21009;-71
2023/03/21 07:58:37;;;;;;;7.60;4.37;;;11.10;99.90;;;;;;5007740;28;20800;-71
2023/03/21 08:01:23;;;;;;;7.20;4.73;;;11.20;99.90;;;;;;5022207;28;20601;-71
2023/03/21 08:04:08;;;;;;;10.40;4.47;;;11.20;99.90;;;;;;5009659;28;20487;-72
2023/03/21 08:06:54;;;;;;;8.00;5.00;;;11.30;99.90;;;;;;5009671;28;20861;-72
2023/03/21 08:09:40;;;;;;;11.17;5.00;;;11.40;99.90;;;;;;5013077;28;20492;-72
2023/03/21 08:12:27;;;;;;;10.77;5.17;;;11.50;99.90;;;;;;5011553;28;20452;-72
2023/03/21 08:15:13;;;;;;;9.57;4.70;;;11.70;99.90;;;;;;5010565;28;20468;-72
2023/03/21 08:17:59;;;;;;;12.80;3.87;;;11.80;99.90;;;;;;5011205;28;20459;-71
2023/03/21 08:20:45;;;;;;;5.30;4.23;;;12.00;99.90;;;;;;5010657;28;20449;-71
2023/03/21 08:23:31;;;;;;;7.97;4.50;;;12.10;99.90;;;;;;5010194;28;21242;-71
2023/03/21 08:26:17;;;;;;;5.73;3.80;;;12.40;99.30;;;;;;5000452;28;20448;-71
2023/03/21 08:29:04;;;;;;;9.67;3.90;;;12.40;96.60;;;;;;5011283;28;20459;-72
2023/03/21 08:31:50;;;;;;;9.17;4.20;;;12.50;94.80;;;;;;5009989;28;20443;-72
2023/03/21 08:34:36;;;;;;;7.23;4.43;;;12.50;88.60;;;;;;5009416;28;20466;-71
2023/03/21 08:37:21;;;;;;;8.90;4.57;;;12.50;91.60;;;;;;5003209;28;20529;-71
2023/03/21 08:40:12;;;;;;;7.03;4.07;;;12.60;90.20;;;;;;5009892;28;20455;-71
2023/03/21 08:42:58;;;;;;;6.60;3.97;;;12.60;86.50;;;;;;5009762;28;21095;-71
2023/03/21 08:45:45;;;;;;;12.13;3.90;;;12.70;88.70;;;;;;5003501;28;20997;-72
2023/03/21 08:48:30;;;;;;;7.97;3.30;;;12.90;84.10;;;;;;5010167;28;20467;-72
2023/03/21 08:51:16;;;;;;;13.63;3.20;;;13.00;85.20;;;;;;5009257;28;20984;-72
2023/03/21 08:54:01;;;;;;;6.70;3.07;;;13.20;82.40;;;;;;5010421;28;20506;-72
2023/03/21 08:56:47;;;;;;;10.73;3.43;;;13.30;80.50;;;;;;5010949;28;20437;-71
2023/03/21 08:59:33;;;;;;;11.47;3.90;;;13.20;76.30;;;;;;5005045;28;20614;-72
2023/03/21 09:02:20;;;;;;;7.30;3.60;;;13.30;77.40;;;;;;5008287;28;20437;-71
2023/03/21 09:05:07;;;;;;;13.37;3.80;;;13.40;78.00;;;;;;5004709;28;20468;-71
2023/03/21 09:07:53;;;;;;;5.80;3.47;;;13.40;73.30;;;;;;5011365;28;20553;-71
2023/03/21 09:10:39;;;;;;;7.00;5.10;;;13.30;74.30;;;;;;5009152;28;20453;-71
2023/03/21 09:13:25;;;;;;;10.03;3.50;;;13.30;73.60;;;;;;5009474;28;20840;-71
2023/03/21 09:16:10;;;;;;;8.40;3.43;;;13.30;73.80;;;;;;5007468;28;20439;-71
2023/03/21 09:18:58;;;;;;;9.87;4.07;;;13.30;74.50;;;;;;5008246;28;20458;-72
2023/03/21 09:21:44;;;;;;;5.30;3.13;;;13.30;72.90;;;;;;5009152;28;20456;-72
2023/03/21 09:24:30;;;;;;;11.93;3.80;;;13.30;71.90;;;;;;5006371;28;20614;-71
2023/03/21 09:27:16;;;;;;;8.30;4.30;;;13.30;72.20;;;;;;5015970;28;20785;-72
2023/03/21 09:30:04;;;;;;;8.93;3.97;;;13.20;73.10;;;;;;5010679;28;20448;-72
2023/03/21 09:32:52;;;;;;;5.43;3.70;;;13.20;76.10;;;;;;5007919;28;20578;-71
2023/03/21 09:35:39;;;;;;;11.63;4.10;;;13.30;73.00;;;;;;5005708;28;20611;-71
2023/03/21 09:38:29;;;;;;;8.93;3.93;;;13.20;71.30;;;;;;5009497;28;20476;-71
2023/03/21 09:41:28;;;;;;;9.20;4.47;;;13.30;74.20;;;;;;5010201;28;20459;-71
2023/03/21 09:44:31;;;;;;;11.17;5.80;;;13.30;73.80;;;;;;5009382;28;20459;-71
2023/03/21 09:47:21;;;;;;;18.33;5.43;;;13.30;73.00;;;;;;5009181;28;20454;-71
2023/03/21 09:50:15;;;;;;;13.80;5.73;;;13.30;72.40;;;;;;5009208;28;20514;-71
2023/03/21 09:53:06;;;;;;;18.40;10.20;;;13.30;70.80;;;;;;5017893;28;20464;-72
2023/03/21 09:55:53;;;;;;;10.70;5.00;;;13.40;73.40;;;;;;5004140;28;20603;-72
2023/03/21 09:58:45;;;;;;;9.50;5.30;;;13.40;74.20;;;;;;5003137;28;20452;-72
2023/03/21 10:01:33;;;;;;;7.50;4.70;;;13.50;74.20;;;;;;5006468;28;20567;-71
2023/03/21 10:04:19;;;;;;;8.97;4.50;;;13.50;75.80;;;;;;5003631;28;20508;-71
2023/03/21 10:07:04;;;;;;;12.33;5.30;;;13.40;75.60;;;;;;5006874;28;20538;-72
2023/03/21 10:09:52;;;;;;;7.93;5.20;;;13.50;76.20;;;;;;5008892;28;20585;-71
2023/03/21 10:12:38;;;;;;;9.73;5.20;;;13.40;76.10;;;;;;5007276;28;20594;-71
2023/03/21 10:15:25;;;;;;;9.23;5.40;;;13.50;78.50;;;;;;5004720;28;21004;-71
2023/03/21 10:18:17;;;;;;;7.90;5.80;;;13.50;77.80;;;;;;5002236;28;20524;-71
2023/03/21 10:21:04;;;;;;;7.40;5.27;;;13.40;77.00;;;;;;5005175;28;20455;-71
2023/03/21 10:23:51;;;;;;;10.10;4.80;;;13.30;76.30;;;;;;5000556;28;20502;-71
2023/03/21 10:26:39;;;;;;;9.40;5.10;;;13.30;78.90;;;;;;5003648;28;20561;-71
2023/03/21 10:29:31;;;;;;;14.93;5.60;;;13.30;78.40;;;;;;5004117;28;20418;-71
2023/03/21 10:32:18;;;;;;;8.73;5.23;;;13.30;77.30;;;;;;4999809;28;20421;-71
2023/03/21 10:35:04;;;;;;;8.43;5.70;;;13.40;78.80;;;;;;4998975;28;20474;-71
2023/03/21 10:37:49;;;;;;;10.53;5.77;;;13.40;78.50;;;;;;5008535;28;20442;-71
2023/03/21 10:40:35;;;;;;;7.03;5.10;;;13.50;79.20;;;;;;5017536;28;20444;-71
2023/03/21 10:43:36;;;;;;;12.97;6.37;;;13.40;76.40;;;;;;5007755;28;20426;-71
2023/03/21 10:46:22;;;;;;;10.33;6.97;;;13.40;78.10;;;;;;5017967;28;20978;-71
2023/03/21 10:49:08;;;;;;;8.03;4.93;;;13.50;78.50;;;;;;5009448;28;20510;-71
2023/03/21 10:51:56;;;;;;;7.00;5.07;;;13.40;78.50;;;;;;5015347;28;20447;-71
2023/03/21 10:54:42;;;;;;;11.03;5.60;;;13.40;80.10;;;;;;5012629;28;20523;-71
2023/03/21 10:57:28;;;;;;;8.10;5.63;;;13.50;82.80;;;;;;5018895;28;20440;-71
2023/03/21 11:00:21;;;;;;;10.33;5.90;;;13.60;83.20;;;;;;5011949;28;20412;-72
2023/03/21 11:03:08;;;;;;;7.60;5.30;;;13.70;79.90;;;;;;5009328;28;20429;-71
2023/03/21 11:05:56;;;;;;;12.83;4.97;;;13.80;78.90;;;;;;5012777;28;20456;-71
2023/03/21 11:08:46;;;;;;;9.30;5.00;;;13.70;78.20;;;;;;5007735;28;20531;-71
2023/03/21 11:11:38;;;;;;;9.07;5.20;;;13.70;77.10;;;;;;5001828;28;20795;-71
2023/03/21 11:14:35;;;;;;;9.33;4.77;;;13.70;78.80;;;;;;5005663;28;20492;-71
2023/03/21 11:17:27;;;;;;;11.67;4.30;;;13.70;76.60;;;;;;5005370;28;20504;-71
2023/03/21 11:20:18;;;;;;;6.90;4.43;;;13.70;78.00;;;;;;5002832;28;20546;-71
2023/03/21 11:23:04;;;;;;;10.13;4.20;;;13.70;78.80;;;;;;5000302;28;20462;-71
2023/03/21 11:25:51;;;;;;;10.93;3.93;;;13.60;78.70;;;;;;5023870;28;20952;-71
2023/03/21 11:28:39;;;;;;;6.30;4.03;;;13.60;82.50;;;;;;5013776;28;20472;-71
2023/03/21 11:31:38;;;;;;;7.13;4.47;;;13.50;82.30;;;;;;5009111;28;21071;-71
2023/03/21 11:34:33;;;;;;;6.90;4.30;;;13.40;88.60;;;;;;5004659;28;20514;-71
2023/03/21 11:37:25;;;;;;;6.70;4.60;;;13.40;90.00;;;;;;5015082;28;20433;-71
2023/03/21 11:40:22;;;;;;;5.90;4.30;;;13.40;87.50;;;;;;5015385;28;20445;-71
2023/03/21 11:43:27;;;;;;;5.77;3.83;;;13.50;85.80;;;;;;5007038;28;20506;-71
2023/03/21 11:46:14;;;;;;;5.93;3.57;;;13.50;85.50;;;;;;5014664;28;20428;-71
2023/03/21 11:49:01;;;;;;;4.43;3.27;;;13.50;85.00;;;;;;5018136;28;20565;-71
2023/03/21 11:51:54;;;;;;;6.40;3.20;;;13.50;84.40;;;;;;5014141;28;20451;-72
2023/03/21 11:54:58;;;;;;;6.30;3.20;;;13.40;83.80;;;;;;5009725;28;20472;-72
2023/03/21 11:57:51;;;;;;;7.60;3.50;;;13.40;85.50;;;;;;5020679;28;20442;-72
2023/03/21 12:00:45;;;;;;;7.20;3.70;;;13.40;80.40;;;;;;5012677;28;20512;-72
2023/03/21 12:03:57;;;;;;;5.20;3.53;;;13.40;83.00;;;;;;5017987;28;20504;-71
2023/03/21 12:06:48;;;;;;;7.43;3.30;;;13.40;80.50;;;;;;5023941;23;20426;-68
2023/03/21 12:09:40;;;;;;;4.90;3.10;;;13.40;82.20;;;;;;4995725;28;20440;-71
2023/03/21 12:12:38;;;;;;;7.17;2.90;;;13.40;87.50;;;;;;5001059;28;20472;-71
2023/03/21 12:15:31;;;;;;;10.60;3.40;;;13.40;83.00;;;;;;5010802;28;20509;-71
2023/03/21 12:18:35;;;;;;;4.93;2.93;;;13.40;85.10;;;;;;4998499;28;20800;-71
2023/03/21 12:21:26;;;;;;;7.40;3.30;;;13.30;82.50;;;;;;5002135;28;20796;-70
2023/03/21 12:24:18;;;;;;;4.43;3.37;;;13.40;81.20;;;;;;5008598;28;20580;-70
2023/03/21 12:27:16;;;;;;;7.93;3.20;;;13.40;83.90;;;;;;5009344;28;20991;-71
2023/03/21 12:30:17;;;;;;;4.77;3.13;;;13.40;90.30;;;;;;5010766;28;20436;-71
2023/03/21 12:33:21;;;;;;;6.40;3.90;;;13.40;94.00;;;;;;5015583;28;20544;-70
2023/03/21 12:36:20;;;;;;;4.20;2.87;;;13.40;90.90;;;;;;5011265;28;20427;-71
2023/03/21 12:39:17;;;;;;;5.37;2.77;;;13.40;94.20;;;;;;5012469;28;20406;-71
2023/03/21 12:42:24;;;;;;;4.23;3.30;;;13.60;97.80;;;;;;5003413;28;20493;-70
2023/03/21 12:45:15;;;;;;;7.33;4.23;;;13.80;98.50;;;;;;5006522;28;20475;-71
2023/03/21 12:48:12;;;;;;;7.47;3.13;;;13.90;95.90;;;;;;4999007;28;20462;-70
2023/03/21 12:51:02;;;;;;;5.67;2.87;;;14.10;95.70;;;;;;5007384;28;20513;-71
2023/03/21 12:54:08;;;;;;;5.03;3.20;;;14.20;90.70;;;;;;5011969;28;20915;-70
2023/03/21 12:57:01;;;;;;;4.50;2.80;;;14.30;76.60;;;;;;5004634;28;20421;-70
2023/03/21 12:59:54;;;;;;;6.50;3.10;;;14.30;77.50;;;;;;5008007;28;20436;-70
2023/03/21 13:02:43;;;;;;;3.67;2.40;;;14.30;75.50;;;;;;5009838;28;20490;-70
2023/03/21 13:05:31;;;;;;;5.50;3.10;;;14.40;77.20;;;;;;5005741;28;20591;-71
2023/03/21 13:08:22;;;;;;;5.70;3.20;;;14.40;70.70;;;;;;5009047;28;20447;-71
2023/03/21 13:11:11;;;;;;;5.73;3.30;;;14.30;73.40;;;;;;5017364;28;20663;-71
2023/03/21 13:14:04;;;;;;;7.10;3.07;;;14.30;71.90;;;;;;5018492;28;20506;-71
2023/03/21 13:16:54;;;;;;;5.50;3.03;;;14.30;72.80;;;;;;5009477;28;20465;-71
2023/03/21 13:19:46;;;;;;;6.07;3.73;;;14.30;66.20;;;;;;5014369;28;20908;-71
2023/03/21 13:22:32;;;;;;;13.17;7.77;;;14.20;67.50;;;;;;5011953;28;20812;-71
2023/03/21 13:25:20;;;;;;;9.60;5.40;;;14.30;70.00;;;;;;5016807;28;20445;-71
2023/03/21 13:28:06;;;;;;;5.97;3.60;;;14.30;71.00;;;;;;5007188;28;20564;-71
2023/03/21 13:30:52;;;;;;;7.80;3.17;;;14.30;71.40;;;;;;5002906;28;20517;-71
2023/03/21 13:33:43;;;;;;;4.07;2.97;;;14.30;66.40;;;;;;5008647;28;20449;-71
2023/03/21 13:36:32;;;;;;;3.60;2.50;;;14.20;66.00;;;;;;5000914;28;20422;-71
2023/03/21 13:39:20;;;;;;;4.00;2.73;;;14.20;64.80;;;;;;5010642;28;20501;-71
2023/03/21 13:42:19;;;;;;;5.20;3.10;;;14.10;67.30;;;;;;5006068;28;20566;-71
2023/03/21 13:45:09;;;;;;;6.07;3.73;;;14.10;66.80;;;;;;5006003;28;20977;-71
2023/03/21 13:47:57;;;;;;;6.90;3.37;;;14.10;65.70;;;;;;5009150;28;20492;-71
2023/03/21 13:51:00;;;;;;;8.00;3.17;;;14.10;65.10;;;;;;5010465;28;20621;-71
2023/03/21 13:54:00;;;;;;;5.67;3.17;;;14.20;67.20;;;;;;5008756;28;20421;-71
2023/03/21 13:56:51;;;;;;;6.07;3.33;;;14.20;66.00;;;;;;5006367;28;20447;-71
2023/03/21 13:59:42;;;;;;;4.13;2.70;;;14.20;65.70;;;;;;5007077;28;20429;-71
2023/03/21 14:02:32;;;;;;;5.90;3.03;;;14.10;66.90;;;;;;5006245;28;20540;-71
2023/03/21 14:05:21;;;;;;;3.90;2.70;;;14.10;66.90;;;;;;5006330;28;20825;-71
2023/03/21 14:08:16;;;;;;;7.83;3.57;;;14.00;65.90;;;;;;5003630;28;20449;-71
2023/03/21 14:11:06;;;;;;;7.50;4.37;;;14.00;66.80;;;;;;5015350;28;20433;-71
2023/03/21 14:13:55;;;;;;;6.33;3.50;;;13.90;70.40;;;;;;5017352;28;20821;-71
2023/03/21 14:16:41;;;;;;;3.50;2.53;;;13.90;70.60;;;;;;5006475;28;20518;-71
2023/03/21 14:19:31;;;;;;;4.53;2.80;;;13.90;73.00;;;;;;5012707;28;20793;-71
2023/03/21 14:22:17;;;;;;;7.00;3.60;;;13.90;83.10;;;;;;5013419;28;20403;-71
2023/03/21 14:25:07;;;;;;;4.90;3.10;;;13.80;90.40;;;;;;5011425;28;20474;-71
2023/03/21 14:27:55;;;;;;;5.70;3.20;;;13.80;85.20;;;;;;5006089;28;20458;-71
2023/03/21 14:30:42;;;;;;;7.80;3.50;;;13.70;91.50;;;;;;5017749;28;20416;-71
2023/03/21 14:33:32;;;;;;;6.67;3.20;;;13.70;96.00;;;;;;5005608;28;20516;-71
2023/03/21 14:36:21;;;;;;;5.70;2.83;;;13.70;96.60;;;;;;5001457;28;20927;-71
2023/03/21 14:39:12;;;;;;;6.03;3.83;;;13.60;99.90;;;;;;5004410;28;20464;-71
2023/03/21 14:42:04;;;;;;;8.20;3.80;;;13.60;99.90;;;;;;5008643;28;20448;-71
2023/03/21 14:44:50;;;;;;;20.53;5.63;;;13.50;99.90;;;;;;5005334;28;20483;-71